Time;durP1;ratioP1;P1;durP2;ratioP2;P2;SDS_P1;SDS_P2;PMS_P1;PMS_P2;Temp;Humidity;BMP_temperature;BMP_pressure;BME280_temperature;BME280_humidity;BME280_pressure;Samples;Min_cycle;Max_cycle;Signal;HPM_P1;HPM_P2
2023/04/05 00:00:45;;;;;;;7.32;5.15;;;;;;;-0.77;93.96;102493.84;5060624;28;20182;-50
2023/04/05 00:03:11;;;;;;;7.72;5.35;;;;;;;-0.80;93.30;102495.47;5057641;28;20193;-51
2023/04/05 00:05:38;;;;;;;7.32;5.82;;;;;;;-0.95;93.90;102495.81;5061020;28;20187;-48
2023/04/05 00:08:07;;;;;;;7.88;5.13;;;;;;;-1.01;94.42;102490.34;5066887;28;20313;-51
2023/04/05 00:10:33;;;;;;;6.60;5.20;;;;;;;-0.90;94.34;102492.50;5060604;28;20233;-48
2023/04/05 00:12:59;;;;;;;6.50;5.22;;;;;;;-1.11;94.68;102495.28;5058566;28;20653;-49
2023/04/05 00:15:26;;;;;;;11.35;5.85;;;;;;;-0.93;95.53;102492.41;5054688;28;20199;-48
2023/04/05 00:17:53;;;;;;;7.82;5.10;;;;;;;-0.94;95.75;102494.97;5055857;28;20209;-53
2023/04/05 00:20:18;;;;;;;7.05;5.15;;;;;;;-0.83;95.45;102496.28;5047619;28;20606;-49
2023/04/05 00:22:45;;;;;;;9.27;5.60;;;;;;;-0.89;95.99;102486.41;5057168;28;20182;-52
2023/04/05 00:25:12;;;;;;;6.93;4.82;;;;;;;-0.85;96.20;102496.22;5055705;28;20211;-48
2023/04/05 00:27:41;;;;;;;7.13;4.85;;;;;;;-0.76;96.29;102485.13;5058208;28;20217;-48
2023/04/05 00:30:07;;;;;;;10.27;5.35;;;;;;;-0.71;97.05;102495.78;5062432;28;20637;-48
2023/04/05 00:32:33;;;;;;;6.57;5.20;;;;;;;-0.75;96.75;102488.63;5049676;28;20377;-50
2023/04/05 00:34:58;;;;;;;7.07;5.07;;;;;;;-0.68;96.79;102490.63;5059165;28;20168;-53
2023/04/05 00:37:24;;;;;;;6.07;5.00;;;;;;;-0.67;96.55;102481.91;5060574;28;20211;-47
2023/04/05 00:39:50;;;;;;;8.07;5.10;;;;;;;-0.82;96.91;102473.47;5060358;28;20197;-49
2023/04/05 00:42:15;;;;;;;8.73;5.45;;;;;;;-0.95;96.78;102477.41;5058689;28;20494;-47
2023/04/05 00:44:41;;;;;;;5.32;4.55;;;;;;;-0.91;97.30;102481.94;5061179;28;20174;-48
2023/04/05 00:47:06;;;;;;;6.75;5.00;;;;;;;-0.82;97.78;102484.00;5057698;28;20207;-52
2023/04/05 00:49:33;;;;;;;7.18;4.63;;;;;;;-0.84;97.72;102484.81;5056520;28;20198;-52
2023/04/05 00:51:59;;;;;;;8.80;5.10;;;;;;;-0.79;97.32;102484.09;5052864;28;20203;-52
2023/04/05 00:54:29;;;;;;;8.52;4.82;;;;;;;-0.69;98.19;102480.97;5054515;28;20195;-53
2023/04/05 00:56:59;;;;;;;5.93;4.40;;;;;;;-0.60;97.61;102480.38;5057905;28;20202;-53
2023/04/05 00:59:25;;;;;;;8.30;5.05;;;;;;;-0.55;97.61;102477.03;5061019;28;20176;-54
2023/04/05 01:02:24;;;;;;;6.72;4.43;;;;;;;-0.50;97.95;102472.84;5052649;28;20171;-53
2023/04/05 01:04:59;;;;;;;6.53;4.10;;;;;;;-0.43;97.57;102468.69;5054755;28;20199;-53
2023/04/05 01:07:33;;;;;;;8.38;4.78;;;;;;;-0.37;97.58;102468.88;5054245;28;20205;-54
2023/04/05 01:09:59;;;;;;;8.38;4.68;;;;;;;-0.49;97.57;102453.56;5060010;28;20302;-53
2023/04/05 01:12:33;;;;;;;5.78;4.88;;;;;;;-0.47;97.78;102466.78;5051303;28;20623;-53
2023/04/05 01:15:00;;;;;;;7.93;4.65;;;;;;;-0.77;97.38;102464.00;5055187;28;20189;-53
2023/04/05 01:17:35;;;;;;;6.35;4.78;;;;;;;-0.80;98.69;102470.06;5058206;28;20199;-53
2023/04/05 01:20:09;;;;;;;7.03;4.63;;;;;;;-0.64;99.53;102477.63;5054233;28;20193;-54
2023/04/05 01:22:56;;;;;;;5.68;4.38;;;;;;;-0.50;99.59;102466.69;5046984;28;20206;-54
2023/04/05 01:26:06;;;;;;;6.85;5.03;;;;;;;-0.42;99.74;102474.00;5071198;28;20262;-53
2023/04/05 01:28:51;;;;;;;7.07;4.50;;;;;;;-0.40;100.00;102479.31;5011944;28;20203;-53
2023/04/05 01:31:56;;;;;;;7.13;4.85;;;;;;;-0.54;100.00;102470.94;5050096;28;20569;-53
2023/04/05 01:34:55;;;;;;;10.32;5.05;;;;;;;-0.38;100.00;102461.81;4995390;28;20931;-54
2023/04/05 01:37:26;;;;;;;5.65;4.32;;;;;;;-0.27;100.00;102460.41;5059685;28;20194;-54
2023/04/05 01:39:53;;;;;;;9.77;5.38;;;;;;;-0.25;100.00;102449.94;5055366;28;20181;-53
2023/04/05 01:42:26;;;;;;;6.43;4.68;;;;;;;-0.23;100.00;102456.16;5055152;28;20178;-54
2023/04/05 01:44:54;;;;;;;6.63;4.40;;;;;;;-0.25;100.00;102452.56;5055267;28;20179;-53
2023/04/05 01:47:19;;;;;;;6.15;4.85;;;;;;;-0.21;100.00;102450.09;5051674;28;20192;-52
2023/04/05 01:49:46;;;;;;;9.00;4.90;;;;;;;-0.15;100.00;102443.22;5050976;28;20218;-53
2023/04/05 01:52:12;;;;;;;7.07;4.72;;;;;;;-0.10;100.00;102442.53;5055249;28;20187;-53
2023/04/05 01:54:38;;;;;;;8.15;4.85;;;;;;;-0.19;100.00;102439.63;5044784;28;20273;-53
2023/04/05 01:57:04;;;;;;;11.40;5.47;;;;;;;-0.37;100.00;102441.63;5052376;28;20202;-53
2023/04/05 01:59:30;;;;;;;7.82;4.97;;;;;;;-0.45;100.00;102444.91;5049399;28;20198;-53
2023/04/05 02:01:58;;;;;;;8.57;5.40;;;;;;;-0.30;100.00;102441.00;5056142;28;20672;-54
2023/04/05 02:04:23;;;;;;;6.82;4.95;;;;;;;-0.20;100.00;102437.81;5058787;28;20187;-48
2023/04/05 02:06:49;;;;;;;6.97;4.97;;;;;;;-0.07;100.00;102439.97;5057490;28;20211;-49
2023/04/05 02:09:14;;;;;;;5.97;5.20;;;;;;;-0.03;100.00;102431.31;5054956;28;20616;-52
2023/04/05 02:11:40;;;;;;;8.75;5.32;;;;;;;-0.05;100.00;102437.41;5054671;28;20215;-48
2023/04/05 02:14:06;;;;;;;6.38;5.10;;;;;;;0.02;100.00;102430.59;5056212;28;20286;-49
2023/04/05 02:16:33;;;;;;;6.75;4.80;;;;;;;0.08;100.00;102433.41;5053217;28;20756;-47
2023/04/05 02:18:59;;;;;;;6.82;5.22;;;;;;;0.13;100.00;102422.19;5062625;28;20642;-49
2023/04/05 02:21:25;;;;;;;6.20;4.93;;;;;;;0.12;100.00;102422.13;5060859;28;20171;-49
2023/04/05 02:23:51;;;;;;;8.25;5.47;;;;;;;0.11;100.00;102415.03;5057362;28;20171;-50
2023/04/05 02:26:17;;;;;;;7.15;4.70;;;;;;;0.08;100.00;102423.75;5055890;28;20179;-53
2023/04/05 02:28:43;;;;;;;8.02;4.90;;;;;;;0.04;100.00;102416.59;5051656;28;20631;-50
2023/04/05 02:31:10;;;;;;;6.55;5.47;;;;;;;0.07;100.00;102421.97;5062532;28;20186;-49
2023/04/05 02:33:35;;;;;;;7.50;4.70;;;;;;;-0.01;100.00;102427.00;5050956;28;20601;-50
2023/04/05 02:36:11;;;;;;;6.75;5.00;;;;;;;0.04;100.00;102424.50;5058476;28;20175;-51
2023/04/05 02:38:37;;;;;;;8.77;5.47;;;;;;;0.00;100.00;102414.75;5041064;28;20214;-48
2023/04/05 02:41:02;;;;;;;7.55;5.65;;;;;;;0.07;100.00;102421.09;5057880;28;20763;-49
2023/04/05 02:43:29;;;;;;;6.90;5.18;;;;;;;0.04;100.00;102419.25;5055808;28;20183;-50
2023/04/05 02:45:55;;;;;;;6.10;4.90;;;;;;;0.02;100.00;102413.03;5048895;28;20241;-48
2023/04/05 02:48:20;;;;;;;10.55;5.57;;;;;;;0.06;100.00;102416.66;5052172;28;20217;-50
2023/04/05 02:50:50;;;;;;;7.95;5.72;;;;;;;0.14;100.00;102420.44;5053681;28;20297;-50
2023/04/05 02:53:17;;;;;;;6.65;4.93;;;;;;;0.18;100.00;102401.22;5054234;28;20179;-50
2023/04/05 02:55:55;;;;;;;10.98;5.40;;;;;;;0.21;100.00;102398.66;5048128;28;20232;-50
2023/04/05 02:58:22;;;;;;;10.05;6.15;;;;;;;0.18;100.00;102415.28;5058202;28;20213;-49
2023/04/05 03:00:49;;;;;;;9.23;5.57;;;;;;;0.23;100.00;102399.59;5057720;28;20166;-53
2023/04/05 03:03:18;;;;;;;8.98;5.20;;;;;;;0.27;100.00;102400.59;5048802;28;20179;-47
2023/04/05 03:05:45;;;;;;;6.28;5.00;;;;;;;0.34;100.00;102418.38;5059863;28;20180;-47
2023/04/05 03:08:18;;;;;;;7.03;5.22;;;;;;;0.33;100.00;102399.03;5047765;28;20194;-46
2023/04/05 03:10:53;;;;;;;7.47;5.43;;;;;;;0.33;100.00;102417.50;5060471;28;20218;-48
2023/04/05 03:13:20;;;;;;;8.75;5.68;;;;;;;0.25;100.00;102413.72;5054035;28;20174;-47
2023/04/05 03:15:46;;;;;;;9.35;5.10;;;;;;;0.30;100.00;102417.38;5057274;28;20203;-47
2023/04/05 03:18:15;;;;;;;7.03;5.35;;;;;;;0.37;100.00;102408.84;5057466;28;20247;-46
2023/04/05 03:20:44;;;;;;;6.90;5.20;;;;;;;0.37;100.00;102405.28;5054976;28;20172;-48
2023/04/05 03:23:16;;;;;;;7.00;5.30;;;;;;;0.40;100.00;102402.75;5055547;28;20183;-47
2023/04/05 03:25:43;;;;;;;9.75;5.97;;;;;;;0.41;100.00;102400.13;5060334;28;20182;-46
2023/04/05 03:28:10;;;;;;;9.75;6.10;;;;;;;0.39;100.00;102396.59;5057570;28;20264;-47
2023/04/05 03:30:39;;;;;;;6.95;5.78;;;;;;;0.46;100.00;102392.38;5053991;28;20206;-47
2023/04/05 03:33:14;;;;;;;9.30;5.65;;;;;;;0.50;100.00;102390.72;5051827;28;20679;-47
2023/04/05 03:35:47;;;;;;;10.18;6.22;;;;;;;0.48;100.00;102390.69;5061306;28;20634;-46
2023/04/05 03:38:13;;;;;;;9.73;6.38;;;;;;;0.40;100.00;102393.09;5059124;28;20213;-45
2023/04/05 03:40:46;;;;;;;9.23;5.50;;;;;;;0.45;100.00;102394.97;5053452;28;20187;-48
2023/04/05 03:43:12;;;;;;;8.57;5.65;;;;;;;0.49;100.00;102394.22;5055092;28;20284;-46
2023/04/05 03:45:38;;;;;;;7.72;5.70;;;;;;;0.50;100.00;102396.88;5042453;28;20188;-48
2023/04/05 03:48:04;;;;;;;8.73;5.95;;;;;;;0.46;100.00;102386.19;5062916;28;20229;-46
2023/04/05 03:50:30;;;;;;;7.47;6.50;;;;;;;0.33;100.00;102374.44;5057647;28;21131;-46
2023/04/05 03:52:56;;;;;;;8.05;6.00;;;;;;;0.34;100.00;102386.75;5057971;28;20256;-46
2023/04/05 03:55:22;;;;;;;9.93;6.35;;;;;;;0.27;100.00;102383.03;5058937;28;20852;-48
2023/04/05 03:57:51;;;;;;;8.07;6.10;;;;;;;0.33;100.00;102380.59;5062410;28;20302;-46
2023/04/05 04:00:23;;;;;;;8.80;6.38;;;;;;;0.26;100.00;102386.50;5042900;28;20240;-48
2023/04/05 04:03:08;;;;;;;10.25;6.30;;;;;;;0.23;100.00;102375.88;5056394;28;20182;-47
2023/04/05 04:05:37;;;;;;;6.38;5.63;;;;;;;0.20;100.00;102374.06;5058447;28;20237;-48
2023/04/05 04:08:05;;;;;;;7.95;6.00;;;;;;;0.11;100.00;102376.44;5058367;28;20252;-47
2023/04/05 04:10:31;;;;;;;7.25;5.78;;;;;;;0.16;100.00;102366.91;5051366;28;20289;-46
2023/04/05 04:12:57;;;;;;;8.20;6.20;;;;;;;0.12;100.00;102370.31;5058023;28;20193;-48
2023/04/05 04:15:27;;;;;;;10.30;6.32;;;;;;;0.08;100.00;102370.16;5057337;28;20190;-46
2023/04/05 04:18:24;;;;;;;7.85;6.32;;;;;;;-0.09;100.00;102373.22;5039617;28;20625;-47
2023/04/05 04:21:09;;;;;;;8.55;6.72;;;;;;;-0.05;100.00;102367.16;5061109;28;20222;-46
2023/04/05 04:23:54;;;;;;;8.20;6.25;;;;;;;-0.08;100.00;102377.63;5058776;28;20672;-47
2023/04/05 04:26:41;;;;;;;9.93;6.47;;;;;;;-0.11;100.00;102367.00;5065170;28;20610;-49
2023/04/05 04:29:29;;;;;;;7.75;6.60;;;;;;;-0.18;100.00;102370.25;5071301;28;20186;-48
2023/04/05 04:32:16;;;;;;;8.32;6.28;;;;;;;-0.17;100.00;102368.56;5041013;28;20252;-49
2023/04/05 04:35:03;;;;;;;8.35;6.47;;;;;;;-0.24;100.00;102373.63;5073026;28;20166;-50
2023/04/05 04:38:03;;;;;;;7.22;5.88;;;;;;;-0.24;100.00;102373.63;5040274;28;20711;-48
2023/04/05 04:40:40;;;;;;;9.23;6.95;;;;;;;-0.41;100.00;102377.47;5071139;28;20161;-48
2023/04/05 04:43:36;;;;;;;10.20;6.85;;;;;;;-0.54;100.00;102364.75;5070578;28;20203;-48
2023/04/05 04:46:41;;;;;;;11.48;6.63;;;;;;;-0.43;100.00;102364.25;5010028;28;20312;-52
2023/04/05 04:49:13;;;;;;;10.43;7.50;;;;;;;-0.35;100.00;102358.31;5062508;28;20306;-49
2023/04/05 04:51:45;;;;;;;9.40;6.50;;;;;;;-0.35;100.00;102358.31;5070380;28;20182;-48
2023/04/05 04:54:12;;;;;;;11.05;7.25;;;;;;;-0.43;100.00;102360.72;5072088;28;20175;-50
2023/04/05 04:56:37;;;;;;;9.38;6.30;;;;;;;-0.51;100.00;102367.47;5071671;28;20190;-50
2023/04/05 04:59:03;;;;;;;8.82;6.28;;;;;;;-0.54;100.00;102367.41;5071541;22;20329;-45
2023/04/05 05:01:28;;;;;;;11.02;6.30;;;;;;;-0.56;100.00;102369.97;5051324;28;20258;-48
2023/04/05 05:03:54;;;;;;;8.15;6.05;;;;;;;-0.50;100.00;102362.28;5051284;28;20249;-45
2023/04/05 05:06:31;;;;;;;8.98;6.70;;;;;;;-0.58;100.00;102358.50;5035045;28;20207;-45
2023/04/05 05:08:56;;;;;;;13.73;6.90;;;;;;;-0.56;100.00;102372.59;5051204;28;20195;-50
2023/04/05 05:11:23;;;;;;;10.68;7.20;;;;;;;-0.62;100.00;102365.38;5033427;28;20270;-48
2023/04/05 05:13:49;;;;;;;10.52;7.05;;;;;;;-0.70;100.00;102360.72;5056581;28;20262;-48
2023/04/05 05:16:22;;;;;;;9.95;7.68;;;;;;;-0.87;100.00;102368.97;5037123;28;20177;-47
2023/04/05 05:18:50;;;;;;;9.32;7.10;;;;;;;-0.76;100.00;102364.06;5051232;28;20183;-46
2023/04/05 05:21:16;;;;;;;9.77;6.68;;;;;;;-0.85;100.00;102359.38;5051153;28;20176;-45
2023/04/05 05:23:43;;;;;;;9.98;6.75;;;;;;;-0.77;100.00;102361.38;5033396;28;20179;-43
2023/04/05 05:26:08;;;;;;;8.85;6.35;;;;;;;-0.77;100.00;102357.00;5051520;28;20195;-44
2023/04/05 05:28:34;;;;;;;8.60;7.30;;;;;;;-0.79;100.00;102363.06;5050687;28;20187;-44
2023/04/05 05:31:00;;;;;;;9.88;7.20;;;;;;;-0.74;100.00;102356.22;5032975;28;20207;-46
2023/04/05 05:33:25;;;;;;;8.70;7.03;;;;;;;-0.68;100.00;102354.69;5032966;28;20261;-49
2023/04/05 05:35:51;;;;;;;9.20;7.25;;;;;;;-0.67;100.00;102361.72;5050979;28;20559;-49
2023/04/05 05:38:17;;;;;;;9.35;6.68;;;;;;;-0.60;100.00;102361.94;5033135;28;20195;-45
2023/04/05 05:40:43;;;;;;;10.20;6.80;;;;;;;-0.53;100.00;102358.63;5051368;28;20191;-50
2023/04/05 05:43:09;;;;;;;10.50;7.20;;;;;;;-0.56;100.00;102362.06;5051179;28;20178;-43
2023/04/05 05:45:35;;;;;;;13.35;7.80;;;;;;;-0.56;100.00;102362.06;5050815;28;20254;-46
2023/04/05 05:48:01;;;;;;;10.32;7.40;;;;;;;-0.52;100.00;102350.78;5050867;28;20234;-47
2023/04/05 05:50:27;;;;;;;10.73;7.43;;;;;;;-0.38;100.00;102358.22;5051028;28;20187;-49
2023/04/05 05:52:52;;;;;;;10.05;7.43;;;;;;;-0.31;100.00;102353.19;5051078;28;20163;-51
2023/04/05 05:55:18;;;;;;;10.57;7.22;;;;;;;-0.29;100.00;102348.88;5051011;28;20170;-49
2023/04/05 05:57:44;;;;;;;8.07;7.22;;;;;;;-0.21;100.00;102354.38;5051044;28;20203;-48
2023/04/05 06:00:10;;;;;;;8.45;6.95;;;;;;;-0.06;100.00;102339.03;5050157;28;20179;-47
2023/04/05 06:02:40;;;;;;;8.82;7.30;;;;;;;0.06;100.00;102345.50;5051126;28;20246;-46
2023/04/05 06:05:05;;;;;;;10.95;7.65;;;;;;;0.04;100.00;102342.81;5032288;28;20199;-45
2023/04/05 06:07:35;;;;;;;10.88;8.05;;;;;;;0.06;100.00;102340.25;5048864;28;20671;-48
2023/04/05 06:10:00;;;;;;;12.35;8.30;;;;;;;0.08;100.00;102343.81;5049612;28;20183;-49
2023/04/05 06:12:26;;;;;;;7.90;7.10;;;;;;;0.15;100.00;102349.31;5049248;28;20160;-51
2023/04/05 06:14:51;;;;;;;12.18;8.90;;;;;;;0.27;100.00;102364.59;5038260;28;20568;-50
2023/04/05 06:17:17;;;;;;;9.50;8.20;;;;;;;0.43;100.00;102359.75;5050115;28;20210;-45
2023/04/05 06:19:43;;;;;;;21.15;8.43;;;;;;;0.56;100.00;102352.22;5049899;28;20206;-50
2023/04/05 06:22:08;;;;;;;15.40;9.50;;;;;;;0.69;100.00;102353.44;5049907;28;20172;-47
2023/04/05 06:24:34;;;;;;;9.95;8.10;;;;;;;0.70;100.00;102371.06;5049852;28;20203;-47
2023/04/05 06:27:00;;;;;;;15.63;8.68;;;;;;;0.71;100.00;102383.41;5050177;28;20191;-45
2023/04/05 06:29:26;;;;;;;12.00;8.55;;;;;;;0.89;100.00;102374.19;5049002;28;20191;-47
2023/04/05 06:31:51;;;;;;;11.82;9.15;;;;;;;0.99;100.00;102365.66;5049014;28;20171;-46
2023/04/05 06:34:17;;;;;;;12.90;9.15;;;;;;;1.09;100.00;102364.16;5032024;28;20171;-47
2023/04/05 06:36:43;;;;;;;9.50;8.20;;;;;;;1.21;100.00;102364.47;5050007;28;20184;-47
2023/04/05 06:39:08;;;;;;;12.55;8.75;;;;;;;1.28;100.00;102357.59;5050037;28;20629;-42
2023/04/05 06:41:34;;;;;;;9.07;8.13;;;;;;;1.37;100.00;102368.38;5049058;28;20303;-44
2023/04/05 06:44:00;;;;;;;13.10;9.00;;;;;;;1.39;100.00;102370.19;5049449;28;20181;-45
2023/04/05 06:46:25;;;;;;;11.20;8.10;;;;;;;1.47;100.00;102362.47;5048932;28;20206;-43
2023/04/05 06:48:51;;;;;;;9.63;8.45;;;;;;;1.55;100.00;102360.00;5049930;28;20798;-47
2023/04/05 06:51:17;;;;;;;10.38;7.90;;;;;;;1.39;100.00;102372.81;5049389;28;20266;-45
2023/04/05 06:53:43;;;;;;;9.48;7.22;;;;;;;1.46;100.00;102368.59;5049971;28;20176;-42
2023/04/05 06:56:09;;;;;;;10.63;8.25;;;;;;;1.60;100.00;102361.91;5049504;28;20176;-44
2023/04/05 06:58:34;;;;;;;12.30;8.50;;;;;;;1.68;100.00;102356.78;5049534;28;20179;-45
2023/04/05 07:01:00;;;;;;;9.85;7.75;;;;;;;1.71;100.00;102332.19;5048861;28;20167;-43
2023/04/05 07:03:26;;;;;;;9.93;8.10;;;;;;;1.73;100.00;102334.00;5048289;28;20163;-43
2023/04/05 07:05:57;;;;;;;11.45;7.45;;;;;;;1.77;100.00;102346.44;5049237;28;20714;-43
2023/04/05 07:08:24;;;;;;;11.85;7.75;;;;;;;1.92;100.00;102351.16;5049712;28;20207;-45
2023/04/05 07:10:50;;;;;;;9.63;7.32;;;;;;;1.94;100.00;102349.44;5049452;28;20207;-44
2023/04/05 07:13:18;;;;;;;13.00;7.05;;;;;;;2.16;100.00;102339.31;5049996;28;20274;-44
2023/04/05 07:15:44;;;;;;;10.52;8.02;;;;;;;2.24;100.00;102335.09;5049647;28;20186;-44
2023/04/05 07:18:10;;;;;;;14.93;8.05;;;;;;;2.40;100.00;102329.22;5031875;28;20662;-43
2023/04/05 07:20:36;;;;;;;8.32;7.07;;;;;;;2.46;100.00;102328.47;5049761;28;20556;-42
2023/04/05 07:23:01;;;;;;;9.75;7.47;;;;;;;2.50;100.00;102338.25;5049358;28;20167;-44
2023/04/05 07:25:27;;;;;;;12.23;7.63;;;;;;;2.69;100.00;102342.16;5049924;28;20171;-42
2023/04/05 07:27:52;;;;;;;12.93;7.80;;;;;;;2.59;100.00;102343.72;5050246;28;20203;-43
2023/04/05 07:30:18;;;;;;;9.73;7.07;;;;;;;2.64;100.00;102351.72;5049414;28;20195;-44
2023/04/05 07:32:44;;;;;;;10.68;7.40;;;;;;;2.87;100.00;102334.53;5049527;28;20178;-46
2023/04/05 07:35:10;;;;;;;9.13;6.82;;;;;;;2.93;100.00;102332.84;5049105;28;20571;-45
2023/04/05 07:37:36;;;;;;;9.50;7.50;;;;;;;2.94;100.00;102332.88;5049066;28;20195;-46
2023/04/05 07:40:01;;;;;;;7.95;6.80;;;;;;;3.07;100.00;102336.63;5049160;28;20164;-44
2023/04/05 07:42:27;;;;;;;8.20;6.75;;;;;;;3.20;100.00;102341.25;5048474;28;20637;-45
2023/04/05 07:44:52;;;;;;;17.33;8.10;;;;;;;3.17;100.00;102320.03;5030721;28;20244;-45
2023/04/05 07:47:18;;;;;;;10.73;7.30;;;;;;;3.09;100.00;102332.25;5049732;28;20535;-46
2023/04/05 07:49:44;;;;;;;8.70;6.90;;;;;;;3.18;100.00;102331.50;5048878;28;20198;-41
2023/04/05 07:52:09;;;;;;;10.75;7.28;;;;;;;3.40;100.00;102320.38;5049486;28;20332;-43
2023/04/05 07:54:38;;;;;;;11.65;7.65;;;;;;;3.57;100.00;102328.59;5050659;28;20237;-43
2023/04/05 07:57:04;;;;;;;9.27;6.70;;;;;;;3.60;100.00;102312.72;5052852;28;20231;-42
2023/04/05 07:59:29;;;;;;;9.68;7.70;;;;;;;3.69;100.00;102323.44;5052940;28;20257;-41
2023/04/05 08:01:55;;;;;;;8.40;6.60;;;;;;;3.80;100.00;102310.34;5052630;28;20178;-43
2023/04/05 08:04:22;;;;;;;10.15;6.68;;;;;;;3.88;100.00;102316.66;5052902;28;20175;-45
2023/04/05 08:06:47;;;;;;;9.82;6.50;;;;;;;3.68;100.00;102303.13;5052864;28;20249;-43
2023/04/05 08:09:13;;;;;;;9.65;6.55;;;;;;;3.84;100.00;102316.59;5053389;28;20223;-44
2023/04/05 08:11:39;;;;;;;8.52;6.50;;;;;;;4.01;100.00;102307.09;5052811;28;20164;-47
2023/04/05 08:14:05;;;;;;;8.52;6.25;;;;;;;4.18;100.00;102304.66;5052727;28;20175;-42
2023/04/05 08:16:30;;;;;;;7.78;5.70;;;;;;;4.23;100.00;102305.59;5052496;28;20218;-41
2023/04/05 08:18:56;;;;;;;12.00;6.40;;;;;;;4.28;100.00;102305.66;5053021;28;20179;-46
2023/04/05 08:21:22;;;;;;;8.77;5.82;;;;;;;4.20;100.00;102299.34;5052454;28;20179;-44
2023/04/05 08:23:49;;;;;;;10.10;7.05;;;;;;;4.29;100.00;102307.44;5052796;28;20622;-46
2023/04/05 08:26:15;;;;;;;9.95;6.05;;;;;;;4.64;100.00;102314.91;5052501;28;20171;-43
2023/04/05 08:28:40;;;;;;;9.70;6.90;;;;;;;4.88;100.00;102308.94;5052154;28;20254;-42
2023/04/05 08:31:06;;;;;;;8.68;6.18;;;;;;;5.09;100.00;102300.25;5017974;28;20232;-44
2023/04/05 08:33:31;;;;;;;9.40;6.18;;;;;;;4.99;100.00;102291.31;5052024;28;20198;-42
2023/04/05 08:36:06;;;;;;;9.13;6.93;;;;;;;5.16;99.61;102297.66;5052779;28;20167;-46
2023/04/05 08:38:31;;;;;;;8.27;5.85;;;;;;;5.15;98.80;102295.88;5052162;28;20163;-42
2023/04/05 08:41:06;;;;;;;7.57;5.80;;;;;;;5.22;98.18;102291.47;5051354;28;20158;-44
2023/04/05 08:43:47;;;;;;;11.00;6.05;;;;;;;5.21;97.61;102286.19;5052055;28;20170;-42
2023/04/05 08:46:15;;;;;;;10.95;5.82;;;;;;;5.48;96.67;102282.81;5052316;28;20247;-44
2023/04/05 08:48:41;;;;;;;6.97;5.70;;;;;;;5.81;96.07;102279.44;5052583;28;20292;-47
2023/04/05 08:51:08;;;;;;;9.57;6.13;;;;;;;5.80;95.22;102274.13;5052211;28;20227;-43
2023/04/05 08:53:34;;;;;;;13.55;6.00;;;;;;;5.74;94.31;102272.31;5051887;28;20178;-41
2023/04/05 08:56:01;;;;;;;9.32;5.57;;;;;;;5.86;93.96;102268.81;5052354;28;20486;-44
2023/04/05 08:58:27;;;;;;;7.55;5.65;;;;;;;5.97;94.23;102270.69;5051551;28;20203;-46
2023/04/05 09:00:55;;;;;;;7.90;5.95;;;;;;;5.94;93.64;102267.09;5051944;28;20214;-45
2023/04/05 09:03:23;;;;;;;7.85;5.53;;;;;;;5.99;93.44;102278.66;5034062;28;20175;-43
2023/04/05 09:05:52;;;;;;;16.63;6.05;;;;;;;5.83;92.76;102280.34;5051352;28;20190;-44
2023/04/05 09:08:20;;;;;;;7.85;5.75;;;;;;;6.11;92.59;102270.75;5052237;28;20708;-44
2023/04/05 09:10:50;;;;;;;7.85;5.47;;;;;;;6.11;91.98;102269.84;5051834;28;20191;-46
2023/04/05 09:13:15;;;;;;;6.88;5.65;;;;;;;5.85;91.28;102256.41;5050575;28;20257;-46
2023/04/05 09:15:41;;;;;;;6.80;5.72;;;;;;;5.98;91.09;102260.94;5051513;28;20206;-44
2023/04/05 09:18:07;;;;;;;9.38;5.65;;;;;;;6.04;91.16;102263.63;5051192;28;20561;-48
2023/04/05 09:20:32;;;;;;;8.80;6.57;;;;;;;6.15;90.47;102261.88;5051659;28;20174;-46
2023/04/05 09:22:58;;;;;;;8.23;5.85;;;;;;;6.55;89.76;102253.97;5052069;28;20174;-47
2023/04/05 09:25:41;;;;;;;9.50;5.97;;;;;;;6.97;88.88;102249.56;5044899;28;20280;-47
2023/04/05 09:28:08;;;;;;;11.65;6.07;;;;;;;7.12;87.48;102238.00;5049248;28;20223;-47
2023/04/05 09:30:35;;;;;;;6.25;4.90;;;;;;;7.23;85.88;102222.00;5050483;28;20207;-45
2023/04/05 09:33:03;;;;;;;7.05;5.15;;;;;;;6.68;84.69;102219.38;5037132;28;20182;-46
2023/04/05 09:35:31;;;;;;;9.73;5.32;;;;;;;6.29;84.82;102232.63;5048699;28;20222;-44
2023/04/05 09:37:58;;;;;;;6.05;5.22;;;;;;;6.89;84.55;102227.38;5050516;28;20252;-45
2023/04/05 09:40:45;;;;;;;10.07;4.63;;;;;;;7.22;82.31;102212.22;5017178;28;20184;-47
2023/04/05 09:43:39;;;;;;;5.80;4.68;;;;;;;7.40;80.71;102201.50;5029475;28;20531;-46
2023/04/05 09:46:06;;;;;;;6.53;4.53;;;;;;;7.10;80.00;102191.81;5030917;28;20191;-46
2023/04/05 09:48:46;;;;;;;5.25;4.13;;;;;;;7.98;79.64;102194.13;5050811;28;20202;-44
2023/04/05 09:51:17;;;;;;;5.50;4.65;;;;;;;7.42;77.89;102180.19;5049176;28;20240;-45
2023/04/05 09:54:09;;;;;;;8.88;4.35;;;;;;;7.97;76.67;102168.38;5051281;28;20183;-46
2023/04/05 09:56:36;;;;;;;5.47;4.10;;;;;;;8.41;76.30;102176.09;5049647;28;20207;-46
2023/04/05 09:59:08;;;;;;;6.18;4.15;;;;;;;7.37;74.70;102153.53;5050222;28;20348;-45
2023/04/05 10:01:34;;;;;;;6.57;4.32;;;;;;;7.64;74.08;102160.53;5016659;28;20183;-44
2023/04/05 10:03:59;;;;;;;7.47;4.72;;;;;;;7.37;74.70;102155.31;5051583;28;20187;-45
2023/04/05 10:06:39;;;;;;;5.38;4.22;;;;;;;7.25;75.04;102158.03;5050160;28;20673;-44
2023/04/05 10:09:06;;;;;;;7.85;4.70;;;;;;;7.44;74.99;102165.06;5049762;28;20290;-45
2023/04/05 10:11:33;;;;;;;8.45;5.22;;;;;;;7.10;75.70;102162.47;5031945;28;20190;-44
2023/04/05 10:14:04;;;;;;;6.78;4.78;;;;;;;7.10;76.67;102162.47;5034052;28;20552;-45
2023/04/05 10:16:33;;;;;;;6.45;4.93;;;;;;;7.03;77.88;102173.19;5049113;28;20214;-45
2023/04/05 10:18:59;;;;;;;7.43;4.30;;;;;;;7.16;78.44;102188.25;5047074;28;20245;-44
2023/04/05 10:21:32;;;;;;;8.15;5.00;;;;;;;7.16;78.57;102172.25;5049250;28;20214;-44
2023/04/05 10:24:14;;;;;;;6.68;5.00;;;;;;;6.84;79.19;102178.50;5050153;28;20317;-44
2023/04/05 10:26:47;;;;;;;6.53;4.22;;;;;;;6.92;78.65;102176.75;5048974;28;20737;-45
2023/04/05 10:29:19;;;;;;;7.07;5.03;;;;;;;6.90;79.09;102170.53;5049746;28;20190;-44
2023/04/05 10:32:03;;;;;;;6.90;4.00;;;;;;;6.76;78.29;102165.22;5048871;28;20246;-43
2023/04/05 10:34:41;;;;;;;10.27;5.68;;;;;;;6.86;79.18;102170.53;5049384;28;20184;-44
2023/04/05 10:37:12;;;;;;;9.52;5.15;;;;;;;6.77;79.79;102184.75;5048088;28;20820;-43
2023/04/05 10:39:45;;;;;;;6.57;5.13;;;;;;;6.72;80.75;102183.88;5048685;28;20273;-44
2023/04/05 10:42:20;;;;;;;10.57;6.00;;;;;;;6.90;81.42;102185.63;5049913;28;20282;-44
2023/04/05 10:44:58;;;;;;;6.15;4.63;;;;;;;6.74;80.59;102182.97;5045456;28;20171;-44
2023/04/05 10:47:27;;;;;;;7.50;4.82;;;;;;;6.86;80.08;102166.09;5048778;28;20206;-44
2023/04/05 10:49:56;;;;;;;6.57;4.47;;;;;;;6.70;79.99;102175.88;5047017;28;20587;-45
2023/04/05 10:52:22;;;;;;;6.35;4.40;;;;;;;7.00;79.78;102171.41;5049833;28;20210;-45
2023/04/05 10:54:48;;;;;;;6.88;4.43;;;;;;;6.66;78.78;102165.22;5047425;28;20188;-46
2023/04/05 10:57:15;;;;;;;4.95;3.72;;;;;;;6.50;77.74;102146.59;5049576;28;20214;-47
2023/04/05 10:59:42;;;;;;;6.80;4.40;;;;;;;6.98;78.17;102158.09;5050179;28;20199;-48
2023/04/05 11:02:08;;;;;;;5.70;5.07;;;;;;;6.71;78.37;102168.75;5051914;28;20183;-48
2023/04/05 11:04:34;;;;;;;6.85;5.32;;;;;;;6.90;79.37;102165.19;5050210;28;20329;-49
2023/04/05 11:10:14;;;;;;;7.68;5.65;;;;;;;7.13;79.91;102162.50;5015573;28;20227;-50
2023/04/05 11:13:04;;;;;;;9.07;5.63;;;;;;;7.14;80.00;102163.38;5015033;28;20183;-47
2023/04/05 11:15:31;;;;;;;7.40;5.38;;;;;;;6.90;80.03;102156.31;5003997;28;20219;-47
2023/04/05 11:18:10;;;;;;;7.25;5.80;;;;;;;6.86;80.72;102166.09;5015742;28;20221;-47
2023/04/05 11:20:42;;;;;;;9.05;5.57;;;;;;;6.98;80.99;102168.75;5017680;28;20186;-46
2023/04/05 11:23:09;;;;;;;8.80;5.35;;;;;;;7.19;80.64;102170.47;5019579;28;20180;-46
2023/04/05 11:25:41;;;;;;;8.60;4.88;;;;;;;7.30;79.70;102145.56;5016151;28;20192;-45
2023/04/05 11:28:10;;;;;;;6.88;4.13;;;;;;;7.19;78.70;102135.84;5022060;28;20212;-47
2023/04/05 11:30:55;;;;;;;4.43;2.13;;;;;;;7.26;73.19;102098.47;5019040;28;20766;-45
2023/04/05 11:33:46;;;;;;;6.78;3.15;;;;;;;7.30;71.20;102063.78;5021379;28;20188;-45
2023/04/05 11:36:12;;;;;;;4.85;2.83;;;;;;;7.49;70.16;102063.72;5019265;28;20226;-46
2023/04/05 11:38:39;;;;;;;5.00;2.53;;;;;;;7.70;68.14;102052.91;5026950;28;20560;-49